createdAt,value
2019-04-06T00:01:50.248Z,42.58
2019-04-06T00:04:22.724Z,41.83
2019-04-06T00:06:55.261Z,43.10
2019-04-06T00:09:27.460Z,44.45
2019-04-06T00:11:59.852Z,47.10
2019-04-06T00:14:33.384Z,45.10
2019-04-06T00:17:05.985Z,46.50
2019-04-06T00:19:38.583Z,44.30
2019-04-06T00:22:11.127Z,44.30
2019-04-06T00:24:43.451Z,42.43
2019-04-06T00:27:17.053Z,44.95
2019-04-06T00:29:49.299Z,41.88
2019-04-06T00:32:22.864Z,43.63
2019-04-06T00:34:55.926Z,43.42
2019-04-06T00:37:28.432Z,44.40
2019-04-06T00:40:00.694Z,43.20
2019-04-06T00:42:33.022Z,45.53
2019-04-06T00:45:05.743Z,46.55
2019-04-06T00:47:38.435Z,45.52
2019-04-06T00:50:10.757Z,42.65
2019-04-06T00:52:43.006Z,43.92
2019-04-06T00:55:15.701Z,44.35
2019-04-06T00:57:48.209Z,44.93
2019-04-06T01:00:20.386Z,45.67
2019-04-06T01:02:52.536Z,42.10
2019-04-06T01:05:24.686Z,42.43
2019-04-06T01:07:58.198Z,41.75
2019-04-06T01:10:30.827Z,40.48
2019-04-06T01:13:03.222Z,37.08
2019-04-06T01:15:35.670Z,35.27
2019-04-06T01:18:08.280Z,34.17
2019-04-06T01:20:40.688Z,35.77
2019-04-06T01:23:13.060Z,34.57
2019-04-06T01:25:45.107Z,35.63
2019-04-06T01:28:17.430Z,35.10
2019-04-06T01:30:49.689Z,36.05
2019-04-06T01:33:22.073Z,36.08
2019-04-06T01:35:54.690Z,33.02
2019-04-06T01:38:27.186Z,31.33
2019-04-06T01:40:59.421Z,32.73
2019-04-06T01:43:31.713Z,29.72
2019-04-06T01:46:05.223Z,30.32
2019-04-06T01:48:37.549Z,29.95
2019-04-06T01:51:11.309Z,28.73
2019-04-06T01:53:43.556Z,26.93
2019-04-06T01:56:18.725Z,28.73
2019-04-06T01:58:49.118Z,30.20
2019-04-06T02:01:22.685Z,30.97
2019-04-06T02:03:55.216Z,29.82
2019-04-06T02:06:27.360Z,26.30
2019-04-06T02:08:59.466Z,25.25
2019-04-06T02:11:31.763Z,25.40
2019-04-06T02:14:04.042Z,22.98
2019-04-06T02:16:36.116Z,22.48
2019-04-06T02:19:08.548Z,23.10
2019-04-06T02:21:40.746Z,22.87
2019-04-06T02:24:12.915Z,25.68
2019-04-06T02:26:45.097Z,25.53
2019-04-06T02:29:17.281Z,25.60
2019-04-06T02:31:50.890Z,27.37
2019-04-06T02:34:24.857Z,26.25
2019-04-06T02:36:58.789Z,28.20
2019-04-06T02:39:32.463Z,28.17
2019-04-06T02:42:06.313Z,27.52
2019-04-06T02:44:38.600Z,26.90
2019-04-06T02:47:10.907Z,27.10
2019-04-06T02:49:46.410Z,27.70
2019-04-06T02:52:18.721Z,26.37
2019-04-06T02:54:51.231Z,27.55
2019-04-06T02:57:23.687Z,27.07
2019-04-06T02:59:56.259Z,26.80
2019-04-06T03:02:28.503Z,25.92
2019-04-06T03:05:00.812Z,27.48
2019-04-06T03:07:33.379Z,25.70
2019-04-06T03:10:07.274Z,26.48
2019-04-06T03:12:39.824Z,26.48
2019-04-06T03:15:15.282Z,25.50
2019-04-06T03:17:47.510Z,22.82
2019-04-06T03:20:20.346Z,22.85
2019-04-06T03:22:52.783Z,23.02
2019-04-06T03:25:25.136Z,21.05
2019-04-06T03:27:57.362Z,22.25
2019-04-06T03:30:30.077Z,49.90
2019-04-06T03:33:02.595Z,67.05
2019-04-06T03:35:34.904Z,26.73
2019-04-06T03:38:07.535Z,25.53
2019-04-06T03:40:39.909Z,23.70
2019-04-06T03:43:12.419Z,27.03
2019-04-06T03:45:44.779Z,24.92
2019-04-06T03:48:17.106Z,24.72
2019-04-06T03:50:50.061Z,71.12
2019-04-06T03:53:22.573Z,90.63
2019-04-06T03:55:54.966Z,47.35
2019-04-06T03:58:27.254Z,28.12
2019-04-06T04:00:59.517Z,25.15
2019-04-06T04:03:31.661Z,22.22
2019-04-06T04:06:03.962Z,24.15
2019-04-06T04:08:36.550Z,21.42
2019-04-06T04:11:08.759Z,22.65
2019-04-06T04:13:41.193Z,25.50
2019-04-06T04:16:13.878Z,23.98
2019-04-06T04:18:46.275Z,21.35
2019-04-06T04:21:18.551Z,22.37
2019-04-06T04:23:50.902Z,21.13
2019-04-06T04:26:23.388Z,21.23
2019-04-06T04:28:55.772Z,22.05
2019-04-06T04:31:28.387Z,20.52
2019-04-06T04:34:01.653Z,21.02
2019-04-06T04:36:33.921Z,20.62
2019-04-06T04:39:09.472Z,19.92
2019-04-06T04:41:41.631Z,20.30
2019-04-06T04:44:14.156Z,21.02
2019-04-06T04:46:46.694Z,21.57
2019-04-06T04:49:18.866Z,21.68
2019-04-06T04:51:51.478Z,23.83
2019-04-06T04:54:23.971Z,23.40
2019-04-06T04:56:56.835Z,22.20
2019-04-06T04:59:29.074Z,21.12
2019-04-06T05:02:02.239Z,26.02
2019-04-06T05:04:34.681Z,25.97
2019-04-06T05:07:06.992Z,24.47
2019-04-06T05:09:39.230Z,23.00
2019-04-06T05:12:11.348Z,22.93
2019-04-06T05:14:46.407Z,22.40
2019-04-06T05:17:18.639Z,22.15
2019-04-06T05:19:50.914Z,24.43
2019-04-06T05:22:23.636Z,22.98
2019-04-06T05:24:56.065Z,33.83
2019-04-06T05:27:28.321Z,28.50
2019-04-06T05:30:00.740Z,22.13
2019-04-06T05:32:34.361Z,23.65
2019-04-06T05:35:08.442Z,22.62
2019-04-06T05:37:40.870Z,25.47
2019-04-06T05:40:13.479Z,23.27
2019-04-06T05:42:45.817Z,23.77
2019-04-06T05:45:18.137Z,24.18
2019-04-06T05:47:50.284Z,24.37
2019-04-06T05:50:22.622Z,22.80
2019-04-06T05:52:54.846Z,25.17
2019-04-06T05:55:27.091Z,23.07
2019-04-06T05:58:04.412Z,24.95
2019-04-06T06:00:32.934Z,25.52
2019-04-06T06:03:05.267Z,27.97
2019-04-06T06:05:40.241Z,23.65
2019-04-06T06:08:11.544Z,23.20
2019-04-06T06:10:43.700Z,31.35
2019-04-06T06:13:15.983Z,30.00
2019-04-06T06:15:48.563Z,27.50
2019-04-06T06:18:26.297Z,24.15
2019-04-06T06:20:54.559Z,24.57
2019-04-06T06:23:27.920Z,24.33
2019-04-06T06:26:00.177Z,25.90
2019-04-06T06:28:32.707Z,24.30
2019-04-06T06:31:05.066Z,23.85
2019-04-06T06:33:37.204Z,28.25
2019-04-06T06:36:09.634Z,32.38
2019-04-06T06:38:41.944Z,28.40
2019-04-06T06:41:14.341Z,23.55
2019-04-06T06:43:46.723Z,25.20
2019-04-06T06:46:18.977Z,25.90
2019-04-06T06:48:51.126Z,23.65
2019-04-06T06:51:23.387Z,23.47
2019-04-06T06:53:56.847Z,22.90
2019-04-06T06:56:29.122Z,24.98
2019-04-06T06:59:01.542Z,22.48
2019-04-06T07:01:33.952Z,23.57
2019-04-06T07:04:06.105Z,22.23
2019-04-06T07:06:39.542Z,22.30
2019-04-06T07:09:11.870Z,21.87
2019-04-06T07:11:44.181Z,22.02
2019-04-06T07:14:16.530Z,21.30
2019-04-06T07:16:48.924Z,20.82
2019-04-06T07:19:21.166Z,21.45
2019-04-06T07:21:53.502Z,20.35
2019-04-06T07:24:25.822Z,20.10
2019-04-06T07:26:58.047Z,21.87
2019-04-06T07:29:30.441Z,20.37
2019-04-06T07:32:02.647Z,31.45
2019-04-06T07:34:34.977Z,29.55
2019-04-06T07:37:07.382Z,22.07
2019-04-06T07:39:39.426Z,20.70
2019-04-06T07:42:11.557Z,19.12
2019-04-06T07:44:43.802Z,20.52
2019-04-06T07:47:16.249Z,20.17
2019-04-06T07:49:48.346Z,23.15
2019-04-06T07:52:20.364Z,21.10
2019-04-06T07:54:52.705Z,18.32
2019-04-06T07:57:25.414Z,19.55
2019-04-06T07:59:58.357Z,18.20
2019-04-06T08:02:30.753Z,20.77
2019-04-06T08:05:03.153Z,26.27
2019-04-06T08:07:35.586Z,25.20
2019-04-06T08:10:08.142Z,19.87
2019-04-06T08:12:40.345Z,23.70
2019-04-06T08:15:12.641Z,19.20
2019-04-06T08:17:45.195Z,19.70
2019-04-06T08:20:17.505Z,19.57
2019-04-06T08:22:49.771Z,19.92
2019-04-06T08:25:22.397Z,18.75
2019-04-06T08:27:54.969Z,19.50
2019-04-06T08:30:27.707Z,19.60
2019-04-06T08:33:00.022Z,25.23
2019-04-06T08:35:32.530Z,21.97
2019-04-06T08:38:04.863Z,19.10
2019-04-06T08:40:37.080Z,19.85
2019-04-06T08:43:09.444Z,27.60
2019-04-06T08:45:41.795Z,26.00
2019-04-06T08:48:14.062Z,19.23
2019-04-06T08:50:46.451Z,31.17
2019-04-06T08:53:18.800Z,21.17
2019-04-06T08:55:51.122Z,20.17
2019-04-06T08:58:23.489Z,17.93
2019-04-06T09:00:56.941Z,18.70
2019-04-06T09:03:29.622Z,19.62
2019-04-06T09:06:02.164Z,19.57
2019-04-06T09:08:34.503Z,23.42
2019-04-06T09:11:06.817Z,23.27
2019-04-06T09:13:40.804Z,20.10
2019-04-06T09:16:12.413Z,34.20
2019-04-06T09:18:44.891Z,23.87
2019-04-06T09:21:17.276Z,20.62
2019-04-06T09:23:49.559Z,21.87
2019-04-06T09:26:22.161Z,20.10
2019-04-06T09:28:54.589Z,20.20
2019-04-06T09:31:26.921Z,20.23
2019-04-06T09:33:59.310Z,20.37
2019-04-06T09:36:31.869Z,20.12
2019-04-06T09:39:04.186Z,19.92
2019-04-06T09:41:36.545Z,19.73
2019-04-06T09:44:09.978Z,19.75
2019-04-06T09:46:43.406Z,21.62
2019-04-06T09:49:16.916Z,27.20
2019-04-06T09:51:50.372Z,31.90
2019-04-06T09:54:23.806Z,24.37
2019-04-06T09:56:57.275Z,20.40
2019-04-06T09:59:35.903Z,20.65
2019-04-06T10:02:06.325Z,20.80
2019-04-06T10:04:40.350Z,34.87
2019-04-06T10:07:14.206Z,28.57
2019-04-06T10:09:47.868Z,29.27
2019-04-06T10:12:21.640Z,20.15
2019-04-06T10:14:55.381Z,20.57
2019-04-06T10:17:29.263Z,20.02
2019-04-06T10:20:03.269Z,20.15
2019-04-06T10:22:36.971Z,20.37
2019-04-06T10:25:11.384Z,22.50
2019-04-06T10:27:45.694Z,23.40
2019-04-06T10:30:19.320Z,21.52
2019-04-06T10:32:53.432Z,20.08
2019-04-06T10:35:26.917Z,21.07
2019-04-06T10:38:05.322Z,21.70
2019-04-06T10:40:39.462Z,25.25
2019-04-06T10:43:13.852Z,21.57
2019-04-06T10:45:47.633Z,29.67
2019-04-06T10:48:21.583Z,23.18
2019-04-06T10:50:55.130Z,27.07
2019-04-06T10:53:29.698Z,26.97
2019-04-06T10:56:03.799Z,25.40
2019-04-06T10:58:37.542Z,26.77
2019-04-06T11:01:20.145Z,25.45
2019-04-06T11:03:53.751Z,27.80
2019-04-06T11:06:27.665Z,27.65
2019-04-06T11:09:01.355Z,30.05
2019-04-06T11:11:36.400Z,29.80
2019-04-06T11:14:10.219Z,29.07
2019-04-06T11:16:43.611Z,28.55
2019-04-06T11:19:17.056Z,29.63
2019-04-06T11:21:50.572Z,28.42
2019-04-06T11:24:24.238Z,28.45
2019-04-06T11:26:57.925Z,29.37
2019-04-06T11:29:32.464Z,29.95
2019-04-06T11:32:06.277Z,30.43
2019-04-06T11:34:40.086Z,38.53
2019-04-06T11:37:14.479Z,32.80
2019-04-06T11:39:48.277Z,36.55
2019-04-06T11:42:22.037Z,30.67
2019-04-06T11:44:55.556Z,28.55
2019-04-06T11:47:29.034Z,43.95
2019-04-06T11:50:03.711Z,39.53
2019-04-06T11:52:37.406Z,51.53
2019-04-06T11:55:10.991Z,30.50
2019-04-06T11:57:44.478Z,29.45
2019-04-06T12:00:25.896Z,28.77
2019-04-06T12:02:53.619Z,29.83
2019-04-06T12:05:27.310Z,37.95
2019-04-06T12:08:01.225Z,31.97
2019-04-06T12:10:35.242Z,36.33
2019-04-06T12:13:09.650Z,30.80
2019-04-06T12:15:43.536Z,31.05
2019-04-06T12:18:18.489Z,30.62
2019-04-06T12:20:52.699Z,31.75
2019-04-06T12:23:26.356Z,30.20
2019-04-06T12:26:00.548Z,30.20
2019-04-06T12:28:34.225Z,32.05
2019-04-06T12:31:08.134Z,32.70
2019-04-06T12:33:42.137Z,33.20
2019-04-06T12:36:15.881Z,37.25
2019-04-06T12:38:49.767Z,43.15
2019-04-06T12:41:23.217Z,35.50
2019-04-06T12:43:56.746Z,33.02
2019-04-06T12:46:30.311Z,39.00
2019-04-06T12:49:04.298Z,38.27
2019-04-06T12:51:37.902Z,40.20
2019-04-06T12:54:11.461Z,34.75
2019-04-06T12:56:45.159Z,34.25
2019-04-06T12:59:18.861Z,33.02
2019-04-06T13:01:53.155Z,34.67
2019-04-06T13:04:26.725Z,33.25
2019-04-06T13:07:00.443Z,34.20
2019-04-06T13:09:34.625Z,33.50
2019-04-06T13:12:08.419Z,32.98
2019-04-06T13:14:42.172Z,33.10
2019-04-06T13:17:15.810Z,34.47
2019-04-06T13:19:49.561Z,35.95
2019-04-06T13:22:23.979Z,34.38
2019-04-06T13:24:58.203Z,34.73
2019-04-06T13:27:31.880Z,50.23
2019-04-06T13:30:05.876Z,40.10
2019-04-06T13:32:39.460Z,42.25
2019-04-06T13:35:13.162Z,40.43
2019-04-06T13:37:48.128Z,36.23
2019-04-06T13:40:22.619Z,37.43
2019-04-06T13:42:56.320Z,35.78
2019-04-06T13:45:30.353Z,37.53
2019-04-06T13:48:04.139Z,35.23
2019-04-06T13:50:37.839Z,34.67
2019-04-06T13:53:11.544Z,34.58
2019-04-06T13:55:45.552Z,38.02
2019-04-06T13:58:19.205Z,34.92
2019-04-06T14:00:52.658Z,36.75
2019-04-06T14:03:26.038Z,42.80
2019-04-06T14:05:59.562Z,41.88
2019-04-06T14:08:33.558Z,42.35
2019-04-06T14:11:07.701Z,42.27
2019-04-06T14:13:41.304Z,46.23
2019-04-06T14:16:15.340Z,43.98
2019-04-06T14:18:48.910Z,37.78
2019-04-06T14:21:23.089Z,35.08
2019-04-06T14:23:56.799Z,48.25
2019-04-06T14:26:30.904Z,50.73
2019-04-06T14:29:04.728Z,44.03
2019-04-06T14:31:38.487Z,38.50
2019-04-06T14:34:12.012Z,38.58
2019-04-06T14:36:45.354Z,40.15
2019-04-06T14:39:18.813Z,39.53
2019-04-06T14:41:53.277Z,43.80
2019-04-06T14:44:27.407Z,43.77
2019-04-06T14:47:00.943Z,44.23
2019-04-06T14:49:34.583Z,47.05
2019-04-06T14:52:08.630Z,47.23
2019-04-06T14:54:42.606Z,62.13
2019-04-06T14:57:16.173Z,83.25
2019-04-06T14:59:51.093Z,47.55
2019-04-06T15:02:24.777Z,46.42
2019-04-06T15:04:58.185Z,44.63
2019-04-06T15:07:31.915Z,43.35
2019-04-06T15:10:06.143Z,49.53
2019-04-06T15:12:40.263Z,72.87
2019-04-06T15:15:16.041Z,55.87
2019-04-06T15:17:49.829Z,43.87
2019-04-06T15:20:23.400Z,43.02
2019-04-06T15:22:57.311Z,42.35
2019-04-06T15:25:31.422Z,40.93
2019-04-06T15:28:06.395Z,41.75
2019-04-06T15:30:40.358Z,41.17
2019-04-06T15:33:14.069Z,41.58
2019-04-06T15:35:47.671Z,45.88
2019-04-06T15:38:21.322Z,46.00
2019-04-06T15:40:56.210Z,45.98
2019-04-06T15:43:33.981Z,73.00
2019-04-06T15:46:07.954Z,59.97
2019-04-06T15:48:41.841Z,44.70
2019-04-06T15:51:15.390Z,42.50
2019-04-06T15:53:48.798Z,43.60
2019-04-06T15:56:22.337Z,42.65
2019-04-06T15:58:55.694Z,42.85
2019-04-06T16:01:29.242Z,42.00
2019-04-06T16:04:03.127Z,54.83
2019-04-06T16:06:36.811Z,40.95
2019-04-06T16:09:10.836Z,40.43
2019-04-06T16:11:45.226Z,38.28
2019-04-06T16:14:19.242Z,38.48
2019-04-06T16:16:54.392Z,37.73
2019-04-06T16:19:28.091Z,38.50
2019-04-06T16:22:01.896Z,37.88
2019-04-06T16:24:36.129Z,38.93
2019-04-06T16:27:09.814Z,39.23
2019-04-06T16:29:43.635Z,38.73
2019-04-06T16:32:18.690Z,38.28
2019-04-06T16:34:52.249Z,38.85
2019-04-06T16:37:25.947Z,40.33
2019-04-06T16:39:59.965Z,43.40
2019-04-06T16:42:33.927Z,44.33
2019-04-06T16:45:08.908Z,69.83
2019-04-06T16:47:42.819Z,39.63
2019-04-06T16:50:16.587Z,38.58
2019-04-06T16:52:50.517Z,44.67
2019-04-06T16:55:24.033Z,90.65
2019-04-06T16:57:59.210Z,44.35
2019-04-06T17:00:32.959Z,41.98
2019-04-06T17:03:07.153Z,43.02
2019-04-06T17:05:40.795Z,47.17
2019-04-06T17:08:14.376Z,46.70
2019-04-06T17:10:48.306Z,43.87
2019-04-06T17:13:22.225Z,43.68
2019-04-06T17:15:56.070Z,44.85
2019-04-06T17:18:29.922Z,45.03
2019-04-06T17:21:04.661Z,47.75
2019-04-06T17:23:38.574Z,58.98
2019-04-06T17:26:12.979Z,52.80
2019-04-06T17:28:46.827Z,53.93
2019-04-06T17:31:21.850Z,50.30
2019-04-06T17:33:55.566Z,50.13
2019-04-06T17:36:29.200Z,49.23
2019-04-06T17:39:03.806Z,47.38
2019-04-06T17:41:37.855Z,52.38
2019-04-06T17:44:11.627Z,53.33
2019-04-06T17:46:45.170Z,51.37
2019-04-06T17:49:18.641Z,52.65
2019-04-06T17:51:52.091Z,49.65
2019-04-06T17:54:25.769Z,51.00
2019-04-06T17:56:59.294Z,58.48
2019-04-06T17:59:32.960Z,47.93
2019-04-06T18:02:07.690Z,52.50
2019-04-06T18:04:41.485Z,51.07
2019-04-06T18:07:15.098Z,51.15
2019-04-06T18:09:49.201Z,54.55
2019-04-06T18:12:23.033Z,52.25
2019-04-06T18:14:55.536Z,52.50
2019-04-06T18:17:28.801Z,55.35
2019-04-06T18:20:02.202Z,71.42
2019-04-06T18:22:34.706Z,61.60
2019-04-06T18:25:08.051Z,49.90
2019-04-06T18:27:40.775Z,48.90
2019-04-06T18:30:13.181Z,51.75
2019-04-06T18:32:57.062Z,50.20
2019-04-06T18:35:20.294Z,51.73
2019-04-06T18:37:53.997Z,51.23
2019-04-06T18:40:27.990Z,53.30
2019-04-06T18:43:00.858Z,53.50
2019-04-06T18:45:33.781Z,54.60
2019-04-06T18:48:06.027Z,56.30
2019-04-06T18:50:39.085Z,54.85
2019-04-06T18:53:11.546Z,54.63
2019-04-06T18:55:43.929Z,54.40
2019-04-06T18:58:16.245Z,52.78
2019-04-06T19:00:48.625Z,53.50
2019-04-06T19:03:20.890Z,52.63
2019-04-06T19:05:54.028Z,51.25
2019-04-06T19:08:26.396Z,53.33
2019-04-06T19:10:58.908Z,53.25
2019-04-06T19:13:31.482Z,53.33
2019-04-06T19:16:04.054Z,53.58
2019-04-06T19:18:36.422Z,55.55
2019-04-06T19:21:08.615Z,54.77
2019-04-06T19:23:41.089Z,54.15
2019-04-06T19:26:13.991Z,51.85
2019-04-06T19:28:47.464Z,53.25
2019-04-06T19:31:19.797Z,56.05
2019-04-06T19:33:52.193Z,53.20
2019-04-06T19:36:24.799Z,54.77
2019-04-06T19:38:57.811Z,52.67
2019-04-06T19:41:30.542Z,52.43
2019-04-06T19:44:03.636Z,51.90
2019-04-06T19:46:36.306Z,52.50
2019-04-06T19:49:08.731Z,51.98
2019-04-06T19:51:41.124Z,52.00
2019-04-06T19:54:13.400Z,50.20
2019-04-06T19:56:45.662Z,52.60
2019-04-06T19:59:18.563Z,52.33
2019-04-06T20:01:51.385Z,52.95
2019-04-06T20:04:24.425Z,53.95
2019-04-06T20:06:56.971Z,52.15
2019-04-06T20:09:29.396Z,52.90
2019-04-06T20:12:05.668Z,52.23
2019-04-06T20:14:35.349Z,50.80
2019-04-06T20:17:08.890Z,52.13
2019-04-06T20:19:41.697Z,52.65
2019-04-06T20:22:14.154Z,53.30
2019-04-06T20:24:46.202Z,54.80
2019-04-06T20:27:18.593Z,55.12
2019-04-06T20:29:50.963Z,54.80
2019-04-06T20:32:23.533Z,53.40
2019-04-06T20:34:56.022Z,54.55
2019-04-06T20:37:28.170Z,53.80
2019-04-06T20:40:00.478Z,55.52
2019-04-06T20:42:32.839Z,53.70
2019-04-06T20:45:06.734Z,54.15
2019-04-06T20:47:40.484Z,55.65
2019-04-06T20:50:13.501Z,55.73
2019-04-06T20:52:46.033Z,55.90
2019-04-06T20:55:18.325Z,56.68
2019-04-06T20:57:50.815Z,61.58
2019-04-06T21:00:23.413Z,59.18
2019-04-06T21:02:55.675Z,57.15
2019-04-06T21:05:27.880Z,59.20
2019-04-06T21:08:00.878Z,59.40
2019-04-06T21:10:33.127Z,100.17
2019-04-06T21:13:06.802Z,109.75
2019-04-06T21:15:39.482Z,94.50
2019-04-06T21:18:12.141Z,87.08
2019-04-06T21:20:46.309Z,104.55
2019-04-06T21:23:18.631Z,132.75
2019-04-06T21:25:50.886Z,97.23
2019-04-06T21:28:23.472Z,82.53
2019-04-06T21:30:55.859Z,83.37
2019-04-06T21:33:28.618Z,78.83
2019-04-06T21:36:00.750Z,74.95
2019-04-06T21:38:33.195Z,83.97
2019-04-06T21:41:05.707Z,81.57
2019-04-06T21:43:38.182Z,74.77
2019-04-06T21:46:10.583Z,71.82
2019-04-06T21:48:43.388Z,72.40
2019-04-06T21:51:16.442Z,74.05
2019-04-06T21:53:48.774Z,73.10
2019-04-06T21:56:21.370Z,71.12
2019-04-06T21:58:53.594Z,70.35
2019-04-06T22:01:26.427Z,71.00
2019-04-06T22:03:58.806Z,68.72
2019-04-06T22:06:31.649Z,73.70
2019-04-06T22:09:05.234Z,71.80
2019-04-06T22:11:37.686Z,72.45
2019-04-06T22:14:10.045Z,71.85
2019-04-06T22:16:42.595Z,70.80
2019-04-06T22:19:15.707Z,72.50
2019-04-06T22:21:48.495Z,71.22
2019-04-06T22:24:21.278Z,73.47
2019-04-06T22:26:53.775Z,72.60
2019-04-06T22:29:25.929Z,70.47
2019-04-06T22:31:58.478Z,69.67
2019-04-06T22:34:38.547Z,71.15
2019-04-06T22:37:04.235Z,69.93
2019-04-06T22:39:36.525Z,69.15
2019-04-06T22:42:08.940Z,67.72
2019-04-06T22:44:41.592Z,69.42
2019-04-06T22:47:14.040Z,73.07
2019-04-06T22:49:46.684Z,73.17
2019-04-06T22:52:19.646Z,74.00
2019-04-06T22:54:52.906Z,69.03
2019-04-06T22:57:26.049Z,72.80
2019-04-06T22:59:58.676Z,72.30
2019-04-06T23:02:32.801Z,71.87
2019-04-06T23:05:07.019Z,71.05
2019-04-06T23:07:39.492Z,78.05
2019-04-06T23:10:11.882Z,85.17
2019-04-06T23:12:44.838Z,111.70
2019-04-06T23:15:17.511Z,102.70
2019-04-06T23:17:50.017Z,82.02
2019-04-06T23:20:22.754Z,77.65
2019-04-06T23:22:55.446Z,77.25
2019-04-06T23:25:31.085Z,75.55
2019-04-06T23:28:02.405Z,77.17
2019-04-06T23:30:34.692Z,75.83
2019-04-06T23:33:07.017Z,77.70
2019-04-06T23:35:39.692Z,77.53
2019-04-06T23:38:12.284Z,77.67
2019-04-06T23:40:44.667Z,79.80
2019-04-06T23:43:17.042Z,82.53
2019-04-06T23:45:49.382Z,82.07
2019-04-06T23:48:21.965Z,79.77
2019-04-06T23:50:54.427Z,82.85
2019-04-06T23:53:26.679Z,80.12
2019-04-06T23:55:59.092Z,79.00
2019-04-06T23:58:31.444Z,79.25
